Chilliwack, Canada
Current Conditions -  °F | °C
As of 4:00 AM on Wednesday 26 Nov 2014 (Local Time) from CYXX Reporting Station
Light Rain Light Rain  
Wind Chill: 34°   Ceiling: 1000
Heat Index: 39°   Visibility: 3mi
Dew Point: 39°   Wind: 7mph
Humidity: 100%   Direction: 20°NNE
Pressure: 30.11"   Gusts: NA
Location:  49.16°N, 121.95°W
Report Text: CYXX 261200Z 02006KT 3SM -RA BR BKN010 OVC020 04/04 A3011 RMK SC5SC3 SLP199
Loading
Personal Weather Stations






























Interactive Weather Map New forecast layout! Learn more

10-Day Weather Forecast

Advertisements
Track Severe Weather on mobile